Huvudsida
METAR-TAF:

METAR-TAF

Flygplatser :

Flughafen Klagenfurt

Klagenfurt, Österrike

latitud: 46-39N, longitud: 014-20E, höjd: 448 m

Aktuellt väderrapport

Denna rapport gjordes för 25 minuter sedan, klockan 17:50 UTC
Vind 7 kt från nord/nordost, varierande mellan väst och nordost
Temperatur 3°C
Fuktighet 41%
Tryck 1020 hPa
Sikt 10 km eller mer
Inga moln under 1 500 m eller inga cumulonimbus

METAR: LOWK 281750Z 03007KT 270V050 CAVOK 03/M09 Q1020 R10L/19//95 NOSIG

Tid: 19:15 (18:15 UTC)

Väderprognos

Denna rapport gjordes för 1 timme och 0 minuter sedan, klockan 17:15 UTC
Prognos gäller från 28 kl. 18 UTC till 29 kl. 18 UTC
Vind 4 kt varierande vindriktning
Sikt 10 km eller mer
Inga moln under 1 500 m eller inga cumulonimbus
Temporärt
från 29 kl. 10 UTC till 29 kl. 17 UTC
Vind 10 kt från väst/sydväst i byarna ända upp till 20 kt
Sikt 10 km eller mer
Få moln på en höjd av 6000 ft

TAF: LOWK 281715Z 2818/2918 VRB04KT CAVOK TX09/2915Z TNM05/2905Z TEMPO 2910/2917 24010G20KT 9999 FEW060

Aktuella väderrapporter och prognoser från 4000 flygplatser (METAR- och TAF-rapporter).

De tillgängliga stationerna syns som gula och röda prickar på kartan.

För musen över prickarna för att se namnen på stationerna.

Klicka sedan för att få väderrapporter och prognoser.

För att ändra kartan: Klicka på de gröna knapparna med ett svart kors på för att zooma in; den gröna knappen med ett streck på för att zooma ut; eller på de gröna pilarna för angränsande kartor.


METAR-TAF: